sensor_id;sensor_type;location;lat;lon;timestamp;temperature;humidity
2010;DHT22;1008;47.404;8.502;2022-08-19T00:00:46;19.00;99.90
2010;DHT22;1008;47.404;8.502;2022-08-19T00:03:13;18.90;99.90
2010;DHT22;1008;47.404;8.502;2022-08-19T00:05:41;18.80;99.90
2010;DHT22;1008;47.404;8.502;2022-08-19T00:08:07;18.90;99.90
2010;DHT22;1008;47.404;8.502;2022-08-19T00:10:34;18.80;99.90
2010;DHT22;1008;47.404;8.502;2022-08-19T00:13:01;18.90;99.90
2010;DHT22;1008;47.404;8.502;2022-08-19T00:15:30;18.80;99.90
2010;DHT22;1008;47.404;8.502;2022-08-19T00:17:56;19.00;99.90
2010;DHT22;1008;47.404;8.502;2022-08-19T00:20:24;18.90;99.90
2010;DHT22;1008;47.404;8.502;2022-08-19T00:22:52;18.90;99.90
2010;DHT22;1008;47.404;8.502;2022-08-19T00:25:19;19.00;99.90
2010;DHT22;1008;47.404;8.502;2022-08-19T00:27:46;19.10;99.90
2010;DHT22;1008;47.404;8.502;2022-08-19T00:30:13;18.90;99.90
2010;DHT22;1008;47.404;8.502;2022-08-19T00:32:40;18.90;99.90
2010;DHT22;1008;47.404;8.502;2022-08-19T00:35:08;19.00;99.90
2010;DHT22;1008;47.404;8.502;2022-08-19T00:37:35;19.00;99.90
2010;DHT22;1008;47.404;8.502;2022-08-19T00:40:06;19.00;99.90
2010;DHT22;1008;47.404;8.502;2022-08-19T00:42:32;18.90;99.90
2010;DHT22;1008;47.404;8.502;2022-08-19T00:44:59;19.00;99.90
2010;DHT22;1008;47.404;8.502;2022-08-19T00:47:26;18.90;99.90
2010;DHT22;1008;47.404;8.502;2022-08-19T00:49:56;18.90;99.90
2010;DHT22;1008;47.404;8.502;2022-08-19T00:52:25;19.00;99.90
2010;DHT22;1008;47.404;8.502;2022-08-19T00:54:52;18.90;99.90
2010;DHT22;1008;47.404;8.502;2022-08-19T00:57:26;19.10;99.90
2010;DHT22;1008;47.404;8.502;2022-08-19T00:59:55;19.10;99.90
2010;DHT22;1008;47.404;8.502;2022-08-19T01:02:24;19.20;99.90
2010;DHT22;1008;47.404;8.502;2022-08-19T01:04:51;19.20;99.90
2010;DHT22;1008;47.404;8.502;2022-08-19T01:07:18;19.20;99.90
2010;DHT22;1008;47.404;8.502;2022-08-19T01:09:45;19.30;99.90
2010;DHT22;1008;47.404;8.502;2022-08-19T01:12:11;19.20;99.90
2010;DHT22;1008;47.404;8.502;2022-08-19T01:14:40;19.30;99.90
2010;DHT22;1008;47.404;8.502;2022-08-19T01:17:11;19.30;99.90
2010;DHT22;1008;47.404;8.502;2022-08-19T01:19:41;19.40;99.90
2010;DHT22;1008;47.404;8.502;2022-08-19T01:22:12;19.50;99.90
2010;DHT22;1008;47.404;8.502;2022-08-19T01:24:42;19.40;99.90
2010;DHT22;1008;47.404;8.502;2022-08-19T01:27:09;19.40;99.90
2010;DHT22;1008;47.404;8.502;2022-08-19T01:29:39;19.30;99.90
2010;DHT22;1008;47.404;8.502;2022-08-19T01:32:07;19.30;99.90
2010;DHT22;1008;47.404;8.502;2022-08-19T01:34:35;19.40;99.90
2010;DHT22;1008;47.404;8.502;2022-08-19T01:37:06;19.30;99.90
2010;DHT22;1008;47.404;8.502;2022-08-19T01:39:36;19.50;99.90
2010;DHT22;1008;47.404;8.502;2022-08-19T01:42:05;19.30;99.90
2010;DHT22;1008;47.404;8.502;2022-08-19T01:44:33;19.40;99.90
2010;DHT22;1008;47.404;8.502;2022-08-19T01:47:02;19.50;99.90
2010;DHT22;1008;47.404;8.502;2022-08-19T01:49:30;19.50;99.90
2010;DHT22;1008;47.404;8.502;2022-08-19T01:51:56;19.30;99.90
2010;DHT22;1008;47.404;8.502;2022-08-19T01:54:24;19.30;99.90
2010;DHT22;1008;47.404;8.502;2022-08-19T01:56:51;19.30;99.90
2010;DHT22;1008;47.404;8.502;2022-08-19T01:59:23;19.30;99.90
2010;DHT22;1008;47.404;8.502;2022-08-19T02:01:50;19.30;99.90
2010;DHT22;1008;47.404;8.502;2022-08-19T02:04:17;19.30;99.90
2010;DHT22;1008;47.404;8.502;2022-08-19T02:06:43;19.30;99.90
2010;DHT22;1008;47.404;8.502;2022-08-19T02:09:10;19.20;99.90
2010;DHT22;1008;47.404;8.502;2022-08-19T02:11:38;19.10;99.90
2010;DHT22;1008;47.404;8.502;2022-08-19T02:14:06;19.20;99.90
2010;DHT22;1008;47.404;8.502;2022-08-19T02:16:35;19.20;99.90
2010;DHT22;1008;47.404;8.502;2022-08-19T02:19:03;19.30;99.90
2010;DHT22;1008;47.404;8.502;2022-08-19T02:21:30;19.40;99.90
2010;DHT22;1008;47.404;8.502;2022-08-19T02:23:58;19.50;99.90
2010;DHT22;1008;47.404;8.502;2022-08-19T02:26:25;19.50;99.90
2010;DHT22;1008;47.404;8.502;2022-08-19T02:28:53;19.50;99.90
2010;DHT22;1008;47.404;8.502;2022-08-19T02:31:23;19.50;99.90
2010;DHT22;1008;47.404;8.502;2022-08-19T02:33:51;19.40;99.90
2010;DHT22;1008;47.404;8.502;2022-08-19T02:36:18;19.50;99.90
2010;DHT22;1008;47.404;8.502;2022-08-19T02:38:46;19.50;99.90
2010;DHT22;1008;47.404;8.502;2022-08-19T02:41:14;19.50;99.90
2010;DHT22;1008;47.404;8.502;2022-08-19T02:43:42;19.30;99.90
2010;DHT22;1008;47.404;8.502;2022-08-19T02:46:14;19.40;99.90
2010;DHT22;1008;47.404;8.502;2022-08-19T02:48:43;19.50;99.90
2010;DHT22;1008;47.404;8.502;2022-08-19T02:51:17;19.30;99.90
2010;DHT22;1008;47.404;8.502;2022-08-19T02:53:44;19.40;99.90
2010;DHT22;1008;47.404;8.502;2022-08-19T02:56:11;19.40;99.90
2010;DHT22;1008;47.404;8.502;2022-08-19T02:58:38;19.40;99.90
2010;DHT22;1008;47.404;8.502;2022-08-19T03:01:05;19.40;99.90
2010;DHT22;1008;47.404;8.502;2022-08-19T03:03:32;19.40;99.90
2010;DHT22;1008;47.404;8.502;2022-08-19T03:06:11;19.50;99.90
2010;DHT22;1008;47.404;8.502;2022-08-19T03:08:40;19.40;99.90
2010;DHT22;1008;47.404;8.502;2022-08-19T03:11:13;19.40;99.90
2010;DHT22;1008;47.404;8.502;2022-08-19T03:13:40;19.30;99.90
2010;DHT22;1008;47.404;8.502;2022-08-19T03:16:09;19.30;99.90
2010;DHT22;1008;47.404;8.502;2022-08-19T03:18:36;19.30;99.90
2010;DHT22;1008;47.404;8.502;2022-08-19T03:21:03;19.30;99.90
2010;DHT22;1008;47.404;8.502;2022-08-19T03:23:30;19.20;99.90
2010;DHT22;1008;47.404;8.502;2022-08-19T03:25:58;19.30;99.90
2010;DHT22;1008;47.404;8.502;2022-08-19T03:28:25;19.30;99.90
2010;DHT22;1008;47.404;8.502;2022-08-19T03:30:56;19.30;99.90
2010;DHT22;1008;47.404;8.502;2022-08-19T03:33:24;19.30;99.90
2010;DHT22;1008;47.404;8.502;2022-08-19T03:36:04;19.20;99.90
2010;DHT22;1008;47.404;8.502;2022-08-19T03:38:32;19.10;99.90
2010;DHT22;1008;47.404;8.502;2022-08-19T03:41:08;19.20;99.90
2010;DHT22;1008;47.404;8.502;2022-08-19T03:43:35;19.20;99.90
2010;DHT22;1008;47.404;8.502;2022-08-19T03:46:05;19.10;99.90
2010;DHT22;1008;47.404;8.502;2022-08-19T03:48:33;18.90;99.90
2010;DHT22;1008;47.404;8.502;2022-08-19T03:51:00;18.80;99.90
2010;DHT22;1008;47.404;8.502;2022-08-19T03:53:28;18.80;99.90
2010;DHT22;1008;47.404;8.502;2022-08-19T03:55:56;18.70;99.90
2010;DHT22;1008;47.404;8.502;2022-08-19T03:58:27;18.60;99.90
2010;DHT22;1008;47.404;8.502;2022-08-19T04:00:54;18.70;99.90
2010;DHT22;1008;47.404;8.502;2022-08-19T04:03:22;18.70;99.90
2010;DHT22;1008;47.404;8.502;2022-08-19T04:05:49;18.60;99.90
2010;DHT22;1008;47.404;8.502;2022-08-19T04:08:16;18.60;99.90
2010;DHT22;1008;47.404;8.502;2022-08-19T04:10:46;18.60;99.90
2010;DHT22;1008;47.404;8.502;2022-08-19T04:13:13;18.60;99.90
2010;DHT22;1008;47.404;8.502;2022-08-19T04:15:42;18.60;99.90
2010;DHT22;1008;47.404;8.502;2022-08-19T04:18:12;18.60;99.90
2010;DHT22;1008;47.404;8.502;2022-08-19T04:20:42;18.70;99.90
2010;DHT22;1008;47.404;8.502;2022-08-19T04:23:09;18.60;99.90
2010;DHT22;1008;47.404;8.502;2022-08-19T04:25:38;18.80;99.90
2010;DHT22;1008;47.404;8.502;2022-08-19T04:28:05;18.80;99.90
2010;DHT22;1008;47.404;8.502;2022-08-19T04:30:37;19.00;99.90
2010;DHT22;1008;47.404;8.502;2022-08-19T04:33:06;19.00;99.90
2010;DHT22;1008;47.404;8.502;2022-08-19T04:35:37;18.90;99.90
2010;DHT22;1008;47.404;8.502;2022-08-19T04:38:04;19.00;99.90
2010;DHT22;1008;47.404;8.502;2022-08-19T04:40:31;18.90;99.90
2010;DHT22;1008;47.404;8.502;2022-08-19T04:43:16;18.80;99.90
2010;DHT22;1008;47.404;8.502;2022-08-19T04:45:43;18.80;99.90
2010;DHT22;1008;47.404;8.502;2022-08-19T04:48:11;18.80;99.90
2010;DHT22;1008;47.404;8.502;2022-08-19T04:50:40;18.70;99.90
2010;DHT22;1008;47.404;8.502;2022-08-19T04:53:08;18.90;99.90
2010;DHT22;1008;47.404;8.502;2022-08-19T04:55:37;18.70;99.90
2010;DHT22;1008;47.404;8.502;2022-08-19T04:58:04;18.70;99.90
2010;DHT22;1008;47.404;8.502;2022-08-19T05:00:31;18.60;99.90
2010;DHT22;1008;47.404;8.502;2022-08-19T05:02:58;18.70;99.90
2010;DHT22;1008;47.404;8.502;2022-08-19T05:05:27;18.70;99.90
2010;DHT22;1008;47.404;8.502;2022-08-19T05:07:54;18.70;99.90
2010;DHT22;1008;47.404;8.502;2022-08-19T05:10:21;18.70;99.90
2010;DHT22;1008;47.404;8.502;2022-08-19T05:12:48;18.60;99.90
2010;DHT22;1008;47.404;8.502;2022-08-19T05:15:14;18.70;99.90
2010;DHT22;1008;47.404;8.502;2022-08-19T05:17:41;18.60;99.90
2010;DHT22;1008;47.404;8.502;2022-08-19T05:20:30;18.60;99.90
2010;DHT22;1008;47.404;8.502;2022-08-19T05:23:14;18.50;99.90
2010;DHT22;1008;47.404;8.502;2022-08-19T05:25:42;18.70;99.90
2010;DHT22;1008;47.404;8.502;2022-08-19T05:28:09;18.70;99.90
2010;DHT22;1008;47.404;8.502;2022-08-19T05:30:36;18.70;99.90
2010;DHT22;1008;47.404;8.502;2022-08-19T05:33:03;18.70;99.90
2010;DHT22;1008;47.404;8.502;2022-08-19T05:35:31;18.70;99.90
2010;DHT22;1008;47.404;8.502;2022-08-19T05:37:58;18.60;99.90
2010;DHT22;1008;47.404;8.502;2022-08-19T05:40:25;18.60;99.90
2010;DHT22;1008;47.404;8.502;2022-08-19T05:42:51;18.50;99.90
2010;DHT22;1008;47.404;8.502;2022-08-19T05:45:19;18.40;99.90
2010;DHT22;1008;47.404;8.502;2022-08-19T05:47:47;18.40;99.90
2010;DHT22;1008;47.404;8.502;2022-08-19T05:50:14;18.30;99.90
2010;DHT22;1008;47.404;8.502;2022-08-19T05:52:44;18.50;99.90
2010;DHT22;1008;47.404;8.502;2022-08-19T05:55:11;18.80;99.90
2010;DHT22;1008;47.404;8.502;2022-08-19T05:57:39;19.00;99.90
2010;DHT22;1008;47.404;8.502;2022-08-19T06:00:07;19.10;99.90
2010;DHT22;1008;47.404;8.502;2022-08-19T06:02:36;19.20;99.90
2010;DHT22;1008;47.404;8.502;2022-08-19T06:05:04;19.20;99.90
2010;DHT22;1008;47.404;8.502;2022-08-19T06:07:35;19.10;99.90
2010;DHT22;1008;47.404;8.502;2022-08-19T06:10:04;19.00;99.90
2010;DHT22;1008;47.404;8.502;2022-08-19T06:12:32;19.00;99.90
2010;DHT22;1008;47.404;8.502;2022-08-19T06:15:00;19.00;99.90
2010;DHT22;1008;47.404;8.502;2022-08-19T06:17:27;19.20;99.90
2010;DHT22;1008;47.404;8.502;2022-08-19T06:19:55;19.20;99.90
2010;DHT22;1008;47.404;8.502;2022-08-19T06:22:22;19.40;99.90
2010;DHT22;1008;47.404;8.502;2022-08-19T06:24:49;19.30;99.90
2010;DHT22;1008;47.404;8.502;2022-08-19T06:27:19;19.40;99.90
2010;DHT22;1008;47.404;8.502;2022-08-19T06:29:46;19.30;99.90
2010;DHT22;1008;47.404;8.502;2022-08-19T06:32:15;19.30;99.90
2010;DHT22;1008;47.404;8.502;2022-08-19T06:34:42;19.20;99.90
2010;DHT22;1008;47.404;8.502;2022-08-19T06:37:10;19.20;99.90
2010;DHT22;1008;47.404;8.502;2022-08-19T06:39:39;19.20;99.90
2010;DHT22;1008;47.404;8.502;2022-08-19T06:42:06;19.20;99.90
2010;DHT22;1008;47.404;8.502;2022-08-19T06:44:39;19.10;99.90
2010;DHT22;1008;47.404;8.502;2022-08-19T06:47:08;19.00;99.90
2010;DHT22;1008;47.404;8.502;2022-08-19T06:49:35;18.90;99.90
2010;DHT22;1008;47.404;8.502;2022-08-19T06:52:03;19.00;99.90
2010;DHT22;1008;47.404;8.502;2022-08-19T06:54:30;19.00;99.90
2010;DHT22;1008;47.404;8.502;2022-08-19T06:56:57;18.80;99.90
2010;DHT22;1008;47.404;8.502;2022-08-19T06:59:28;18.80;99.90
2010;DHT22;1008;47.404;8.502;2022-08-19T07:02:00;18.80;99.90
2010;DHT22;1008;47.404;8.502;2022-08-19T07:04:28;18.60;99.90
2010;DHT22;1008;47.404;8.502;2022-08-19T07:06:58;18.60;99.90
2010;DHT22;1008;47.404;8.502;2022-08-19T07:09:25;18.60;99.90
2010;DHT22;1008;47.404;8.502;2022-08-19T07:11:53;18.50;99.90
2010;DHT22;1008;47.404;8.502;2022-08-19T07:14:22;18.50;99.90
2010;DHT22;1008;47.404;8.502;2022-08-19T07:16:51;18.50;99.90
2010;DHT22;1008;47.404;8.502;2022-08-19T07:19:23;18.50;99.90
2010;DHT22;1008;47.404;8.502;2022-08-19T07:21:51;18.50;99.90
2010;DHT22;1008;47.404;8.502;2022-08-19T07:24:19;18.50;99.90
2010;DHT22;1008;47.404;8.502;2022-08-19T07:26:49;18.60;99.90
2010;DHT22;1008;47.404;8.502;2022-08-19T07:29:17;18.50;99.90
2010;DHT22;1008;47.404;8.502;2022-08-19T07:31:44;18.40;99.90
2010;DHT22;1008;47.404;8.502;2022-08-19T07:34:11;18.50;99.90
2010;DHT22;1008;47.404;8.502;2022-08-19T07:36:43;18.40;99.90
2010;DHT22;1008;47.404;8.502;2022-08-19T07:39:13;18.50;99.90
2010;DHT22;1008;47.404;8.502;2022-08-19T07:41:41;18.60;99.90
2010;DHT22;1008;47.404;8.502;2022-08-19T07:44:09;18.70;99.90
2010;DHT22;1008;47.404;8.502;2022-08-19T07:46:37;18.80;99.90
2010;DHT22;1008;47.404;8.502;2022-08-19T07:49:06;18.80;99.90
2010;DHT22;1008;47.404;8.502;2022-08-19T07:51:33;18.70;99.90
2010;DHT22;1008;47.404;8.502;2022-08-19T07:54:02;18.70;99.90
2010;DHT22;1008;47.404;8.502;2022-08-19T07:56:29;18.70;99.90
2010;DHT22;1008;47.404;8.502;2022-08-19T07:58:56;18.70;99.90
2010;DHT22;1008;47.404;8.502;2022-08-19T08:01:25;18.70;99.90
2010;DHT22;1008;47.404;8.502;2022-08-19T08:03:54;18.70;99.90
2010;DHT22;1008;47.404;8.502;2022-08-19T08:06:39;18.70;99.90
2010;DHT22;1008;47.404;8.502;2022-08-19T08:09:28;18.70;99.90
2010;DHT22;1008;47.404;8.502;2022-08-19T08:11:57;18.60;99.90
2010;DHT22;1008;47.404;8.502;2022-08-19T08:14:27;18.80;99.90
2010;DHT22;1008;47.404;8.502;2022-08-19T08:16:54;18.80;99.90
2010;DHT22;1008;47.404;8.502;2022-08-19T08:19:23;18.80;99.90
2010;DHT22;1008;47.404;8.502;2022-08-19T08:21:50;18.90;99.90
2010;DHT22;1008;47.404;8.502;2022-08-19T08:24:18;18.80;99.90
2010;DHT22;1008;47.404;8.502;2022-08-19T08:26:46;18.70;99.90
2010;DHT22;1008;47.404;8.502;2022-08-19T08:29:14;18.80;99.90
2010;DHT22;1008;47.404;8.502;2022-08-19T08:31:43;18.90;99.90
2010;DHT22;1008;47.404;8.502;2022-08-19T08:34:11;18.80;99.90
2010;DHT22;1008;47.404;8.502;2022-08-19T08:36:39;18.90;99.90
2010;DHT22;1008;47.404;8.502;2022-08-19T08:39:07;18.90;99.90
2010;DHT22;1008;47.404;8.502;2022-08-19T08:41:39;18.80;99.90
2010;DHT22;1008;47.404;8.502;2022-08-19T08:44:14;18.80;99.90
2010;DHT22;1008;47.404;8.502;2022-08-19T08:46:45;18.90;99.90
2010;DHT22;1008;47.404;8.502;2022-08-19T08:49:24;18.90;99.90
2010;DHT22;1008;47.404;8.502;2022-08-19T08:52:00;18.90;99.90
2010;DHT22;1008;47.404;8.502;2022-08-19T08:54:33;18.90;99.90
2010;DHT22;1008;47.404;8.502;2022-08-19T08:57:03;18.80;99.90
2010;DHT22;1008;47.404;8.502;2022-08-19T08:59:34;18.80;99.90
2010;DHT22;1008;47.404;8.502;2022-08-19T09:02:02;18.90;99.90
2010;DHT22;1008;47.404;8.502;2022-08-19T09:04:29;18.80;99.90
2010;DHT22;1008;47.404;8.502;2022-08-19T09:07:16;18.90;99.90
2010;DHT22;1008;47.404;8.502;2022-08-19T09:09:48;19.00;99.90
2010;DHT22;1008;47.404;8.502;2022-08-19T09:12:21;18.90;99.90
2010;DHT22;1008;47.404;8.502;2022-08-19T09:14:54;18.90;99.90
2010;DHT22;1008;47.404;8.502;2022-08-19T09:17:26;18.90;99.90
2010;DHT22;1008;47.404;8.502;2022-08-19T09:19:57;18.90;99.90
2010;DHT22;1008;47.404;8.502;2022-08-19T09:22:25;18.80;99.90
2010;DHT22;1008;47.404;8.502;2022-08-19T09:24:53;18.90;99.90
2010;DHT22;1008;47.404;8.502;2022-08-19T09:27:20;19.00;99.90
2010;DHT22;1008;47.404;8.502;2022-08-19T09:29:50;19.10;99.90
2010;DHT22;1008;47.404;8.502;2022-08-19T09:32:17;19.00;99.90
2010;DHT22;1008;47.404;8.502;2022-08-19T09:34:44;18.90;99.90
2010;DHT22;1008;47.404;8.502;2022-08-19T09:37:11;18.90;99.90
2010;DHT22;1008;47.404;8.502;2022-08-19T09:39:39;18.90;99.90
2010;DHT22;1008;47.404;8.502;2022-08-19T09:42:08;18.90;99.90
2010;DHT22;1008;47.404;8.502;2022-08-19T09:44:37;19.00;99.90
2010;DHT22;1008;47.404;8.502;2022-08-19T09:47:06;19.00;99.90
2010;DHT22;1008;47.404;8.502;2022-08-19T09:49:33;18.90;99.90
2010;DHT22;1008;47.404;8.502;2022-08-19T09:52:00;18.70;99.90
2010;DHT22;1008;47.404;8.502;2022-08-19T09:54:27;18.70;99.90
2010;DHT22;1008;47.404;8.502;2022-08-19T09:56:55;18.70;99.90
2010;DHT22;1008;47.404;8.502;2022-08-19T09:59:22;18.60;99.90
2010;DHT22;1008;47.404;8.502;2022-08-19T10:01:49;18.70;99.90
2010;DHT22;1008;47.404;8.502;2022-08-19T10:04:17;19.00;99.90
2010;DHT22;1008;47.404;8.502;2022-08-19T10:06:45;18.80;99.90
2010;DHT22;1008;47.404;8.502;2022-08-19T10:09:14;18.80;99.90
2010;DHT22;1008;47.404;8.502;2022-08-19T10:11:43;18.90;99.90
2010;DHT22;1008;47.404;8.502;2022-08-19T10:14:11;19.00;99.90
2010;DHT22;1008;47.404;8.502;2022-08-19T10:16:38;18.90;99.90
2010;DHT22;1008;47.404;8.502;2022-08-19T10:19:05;19.00;99.90
2010;DHT22;1008;47.404;8.502;2022-08-19T10:21:33;19.00;99.90
2010;DHT22;1008;47.404;8.502;2022-08-19T10:24:03;19.00;99.90
2010;DHT22;1008;47.404;8.502;2022-08-19T10:26:36;18.90;99.90
2010;DHT22;1008;47.404;8.502;2022-08-19T10:29:04;18.90;99.90
2010;DHT22;1008;47.404;8.502;2022-08-19T10:31:32;18.90;99.90
2010;DHT22;1008;47.404;8.502;2022-08-19T10:34:00;18.90;99.90
2010;DHT22;1008;47.404;8.502;2022-08-19T10:36:29;18.90;99.90
2010;DHT22;1008;47.404;8.502;2022-08-19T10:38:59;18.80;99.90
2010;DHT22;1008;47.404;8.502;2022-08-19T10:41:29;18.80;99.90
2010;DHT22;1008;47.404;8.502;2022-08-19T10:43:59;18.90;99.90
2010;DHT22;1008;47.404;8.502;2022-08-19T10:46:27;18.80;99.90
2010;DHT22;1008;47.404;8.502;2022-08-19T10:48:58;18.80;99.90
2010;DHT22;1008;47.404;8.502;2022-08-19T10:51:25;19.10;99.90
2010;DHT22;1008;47.404;8.502;2022-08-19T10:54:11;19.00;99.90
2010;DHT22;1008;47.404;8.502;2022-08-19T10:56:38;19.00;99.90
2010;DHT22;1008;47.404;8.502;2022-08-19T10:59:21;19.30;99.90
2010;DHT22;1008;47.404;8.502;2022-08-19T11:01:49;19.00;99.90
2010;DHT22;1008;47.404;8.502;2022-08-19T11:04:17;19.00;99.90
2010;DHT22;1008;47.404;8.502;2022-08-19T11:06:45;19.00;99.90
2010;DHT22;1008;47.404;8.502;2022-08-19T11:09:15;19.00;99.90
2010;DHT22;1008;47.404;8.502;2022-08-19T11:11:43;19.00;99.90
2010;DHT22;1008;47.404;8.502;2022-08-19T11:14:12;19.00;99.90
2010;DHT22;1008;47.404;8.502;2022-08-19T11:16:40;18.90;99.90
2010;DHT22;1008;47.404;8.502;2022-08-19T11:19:09;18.90;99.90
2010;DHT22;1008;47.404;8.502;2022-08-19T11:21:38;18.80;99.90
2010;DHT22;1008;47.404;8.502;2022-08-19T11:24:07;18.80;99.90
2010;DHT22;1008;47.404;8.502;2022-08-19T11:26:37;18.90;99.90
2010;DHT22;1008;47.404;8.502;2022-08-19T11:29:05;19.00;99.90
2010;DHT22;1008;47.404;8.502;2022-08-19T11:31:37;19.00;99.90
2010;DHT22;1008;47.404;8.502;2022-08-19T11:34:07;19.10;99.90
2010;DHT22;1008;47.404;8.502;2022-08-19T11:36:37;19.20;99.90
2010;DHT22;1008;47.404;8.502;2022-08-19T11:39:05;19.30;99.90
2010;DHT22;1008;47.404;8.502;2022-08-19T11:41:33;19.30;99.90
2010;DHT22;1008;47.404;8.502;2022-08-19T11:44:02;19.40;99.90
2010;DHT22;1008;47.404;8.502;2022-08-19T11:46:30;19.20;99.90
2010;DHT22;1008;47.404;8.502;2022-08-19T11:48:58;19.60;99.90
2010;DHT22;1008;47.404;8.502;2022-08-19T11:51:26;19.30;99.90
2010;DHT22;1008;47.404;8.502;2022-08-19T11:53:54;19.60;99.90
2010;DHT22;1008;47.404;8.502;2022-08-19T11:56:22;19.40;99.90
2010;DHT22;1008;47.404;8.502;2022-08-19T11:58:50;19.40;99.90
2010;DHT22;1008;47.404;8.502;2022-08-19T12:01:21;19.40;99.90
2010;DHT22;1008;47.404;8.502;2022-08-19T12:03:49;19.40;99.90
2010;DHT22;1008;47.404;8.502;2022-08-19T12:06:20;19.50;99.90
2010;DHT22;1008;47.404;8.502;2022-08-19T12:08:49;19.50;99.90
2010;DHT22;1008;47.404;8.502;2022-08-19T12:11:16;19.40;99.90
2010;DHT22;1008;47.404;8.502;2022-08-19T12:13:43;19.40;99.90
2010;DHT22;1008;47.404;8.502;2022-08-19T12:16:14;19.40;99.90
2010;DHT22;1008;47.404;8.502;2022-08-19T12:18:43;19.40;99.90
2010;DHT22;1008;47.404;8.502;2022-08-19T12:21:11;19.50;99.90
2010;DHT22;1008;47.404;8.502;2022-08-19T12:23:39;19.50;99.90
2010;DHT22;1008;47.404;8.502;2022-08-19T12:26:08;19.50;99.90
2010;DHT22;1008;47.404;8.502;2022-08-19T12:28:35;19.50;99.90
2010;DHT22;1008;47.404;8.502;2022-08-19T12:31:02;19.50;99.90
2010;DHT22;1008;47.404;8.502;2022-08-19T12:33:29;19.40;99.90
2010;DHT22;1008;47.404;8.502;2022-08-19T12:36:02;19.50;99.90
2010;DHT22;1008;47.404;8.502;2022-08-19T12:38:29;19.50;99.90
2010;DHT22;1008;47.404;8.502;2022-08-19T12:40:57;19.60;99.90
2010;DHT22;1008;47.404;8.502;2022-08-19T12:43:24;19.60;99.90
2010;DHT22;1008;47.404;8.502;2022-08-19T12:45:51;19.50;99.90
2010;DHT22;1008;47.404;8.502;2022-08-19T12:48:18;19.30;99.90
2010;DHT22;1008;47.404;8.502;2022-08-19T12:50:45;19.50;99.90
2010;DHT22;1008;47.404;8.502;2022-08-19T12:53:14;19.50;99.90
2010;DHT22;1008;47.404;8.502;2022-08-19T12:55:41;19.50;99.90
2010;DHT22;1008;47.404;8.502;2022-08-19T12:58:09;19.60;99.90
2010;DHT22;1008;47.404;8.502;2022-08-19T13:00:38;19.60;99.90
2010;DHT22;1008;47.404;8.502;2022-08-19T13:03:05;19.50;99.90
2010;DHT22;1008;47.404;8.502;2022-08-19T13:05:33;19.40;99.90
2010;DHT22;1008;47.404;8.502;2022-08-19T13:08:00;19.60;99.90
2010;DHT22;1008;47.404;8.502;2022-08-19T13:10:30;19.60;99.90
2010;DHT22;1008;47.404;8.502;2022-08-19T13:13:01;19.70;99.90
2010;DHT22;1008;47.404;8.502;2022-08-19T13:15:28;19.60;99.90
2010;DHT22;1008;47.404;8.502;2022-08-19T13:17:57;19.60;99.90
2010;DHT22;1008;47.404;8.502;2022-08-19T13:20:25;19.60;99.90
2010;DHT22;1008;47.404;8.502;2022-08-19T13:22:52;19.40;99.90
2010;DHT22;1008;47.404;8.502;2022-08-19T13:25:19;19.40;99.90
2010;DHT22;1008;47.404;8.502;2022-08-19T13:27:48;19.40;99.90
2010;DHT22;1008;47.404;8.502;2022-08-19T13:30:17;19.40;99.90
2010;DHT22;1008;47.404;8.502;2022-08-19T13:33:02;19.40;99.90
2010;DHT22;1008;47.404;8.502;2022-08-19T13:35:40;19.50;99.90
2010;DHT22;1008;47.404;8.502;2022-08-19T13:38:08;19.40;99.90
2010;DHT22;1008;47.404;8.502;2022-08-19T13:40:36;19.40;99.90
2010;DHT22;1008;47.404;8.502;2022-08-19T13:43:05;19.30;99.90
2010;DHT22;1008;47.404;8.502;2022-08-19T13:45:33;19.40;99.90
2010;DHT22;1008;47.404;8.502;2022-08-19T13:48:01;19.70;99.90
2010;DHT22;1008;47.404;8.502;2022-08-19T13:50:33;19.60;99.90
2010;DHT22;1008;47.404;8.502;2022-08-19T13:53:00;19.60;99.90
2010;DHT22;1008;47.404;8.502;2022-08-19T13:55:28;19.50;99.90
2010;DHT22;1008;47.404;8.502;2022-08-19T13:57:57;19.50;99.90
2010;DHT22;1008;47.404;8.502;2022-08-19T14:00:26;19.60;99.90
2010;DHT22;1008;47.404;8.502;2022-08-19T14:02:55;19.70;99.90
2010;DHT22;1008;47.404;8.502;2022-08-19T14:05:23;19.80;99.90
2010;DHT22;1008;47.404;8.502;2022-08-19T14:07:51;19.80;99.90
2010;DHT22;1008;47.404;8.502;2022-08-19T14:10:19;19.70;99.90
2010;DHT22;1008;47.404;8.502;2022-08-19T14:12:46;19.70;99.90
2010;DHT22;1008;47.404;8.502;2022-08-19T14:15:14;19.60;99.90
2010;DHT22;1008;47.404;8.502;2022-08-19T14:17:44;19.60;99.90
2010;DHT22;1008;47.404;8.502;2022-08-19T14:20:12;19.60;99.90
2010;DHT22;1008;47.404;8.502;2022-08-19T14:22:41;19.70;99.90
2010;DHT22;1008;47.404;8.502;2022-08-19T14:25:11;19.50;99.90
2010;DHT22;1008;47.404;8.502;2022-08-19T14:27:40;19.60;99.90
2010;DHT22;1008;47.404;8.502;2022-08-19T14:30:09;19.70;99.90
2010;DHT22;1008;47.404;8.502;2022-08-19T14:32:36;19.60;99.90
2010;DHT22;1008;47.404;8.502;2022-08-19T14:35:06;19.70;99.90
2010;DHT22;1008;47.404;8.502;2022-08-19T14:37:33;19.90;99.90
2010;DHT22;1008;47.404;8.502;2022-08-19T14:40:01;20.00;99.90
2010;DHT22;1008;47.404;8.502;2022-08-19T14:42:27;20.20;99.90
2010;DHT22;1008;47.404;8.502;2022-08-19T14:44:57;20.10;99.90
2010;DHT22;1008;47.404;8.502;2022-08-19T14:47:25;20.00;99.90
2010;DHT22;1008;47.404;8.502;2022-08-19T14:49:52;20.10;99.90
2010;DHT22;1008;47.404;8.502;2022-08-19T14:52:20;20.20;99.90
2010;DHT22;1008;47.404;8.502;2022-08-19T14:54:47;20.10;99.90
2010;DHT22;1008;47.404;8.502;2022-08-19T14:57:14;20.00;99.90
2010;DHT22;1008;47.404;8.502;2022-08-19T14:59:41;20.10;99.90
2010;DHT22;1008;47.404;8.502;2022-08-19T15:02:07;20.10;99.90
2010;DHT22;1008;47.404;8.502;2022-08-19T15:04:34;20.20;99.90
2010;DHT22;1008;47.404;8.502;2022-08-19T15:07:01;20.00;99.90
2010;DHT22;1008;47.404;8.502;2022-08-19T15:09:31;20.20;99.90
2010;DHT22;1008;47.404;8.502;2022-08-19T15:11:57;20.30;99.90
2010;DHT22;1008;47.404;8.502;2022-08-19T15:14:25;20.20;99.90
2010;DHT22;1008;47.404;8.502;2022-08-19T15:16:53;20.30;99.90
2010;DHT22;1008;47.404;8.502;2022-08-19T15:19:19;19.90;99.90
2010;DHT22;1008;47.404;8.502;2022-08-19T15:21:46;20.00;99.90
2010;DHT22;1008;47.404;8.502;2022-08-19T15:24:13;20.00;99.90
2010;DHT22;1008;47.404;8.502;2022-08-19T15:26:42;19.90;99.90
2010;DHT22;1008;47.404;8.502;2022-08-19T15:29:08;20.10;99.90
2010;DHT22;1008;47.404;8.502;2022-08-19T15:31:40;20.00;99.90
2010;DHT22;1008;47.404;8.502;2022-08-19T15:34:06;20.00;99.90
2010;DHT22;1008;47.404;8.502;2022-08-19T15:36:33;20.10;99.90
2010;DHT22;1008;47.404;8.502;2022-08-19T15:39:01;20.10;99.90
2010;DHT22;1008;47.404;8.502;2022-08-19T15:41:29;20.10;99.90
2010;DHT22;1008;47.404;8.502;2022-08-19T15:43:59;20.10;99.90
2010;DHT22;1008;47.404;8.502;2022-08-19T15:46:29;20.10;99.90
2010;DHT22;1008;47.404;8.502;2022-08-19T15:48:57;20.00;99.90
2010;DHT22;1008;47.404;8.502;2022-08-19T15:51:26;19.90;99.90
2010;DHT22;1008;47.404;8.502;2022-08-19T15:53:53;19.80;99.90
2010;DHT22;1008;47.404;8.502;2022-08-19T15:56:20;19.80;99.90
2010;DHT22;1008;47.404;8.502;2022-08-19T15:58:46;19.80;99.90
2010;DHT22;1008;47.404;8.502;2022-08-19T16:01:32;19.80;99.90
2010;DHT22;1008;47.404;8.502;2022-08-19T16:04:17;19.80;99.90
2010;DHT22;1008;47.404;8.502;2022-08-19T16:07:01;19.90;99.90
2010;DHT22;1008;47.404;8.502;2022-08-19T16:09:30;19.90;99.90
2010;DHT22;1008;47.404;8.502;2022-08-19T16:12:01;20.30;99.90